sensor_id;sensor_type;location;lat;lon;timestamp;P1;durP1;ratioP1;P2;durP2;ratioP2
25649;SDS011;13505;45.196;5.696;2023-06-10T06:01:41;10.40;;;6.32;;
25649;SDS011;13505;45.196;5.696;2023-06-10T06:06:32;9.02;;;5.90;;
25649;SDS011;13505;45.196;5.696;2023-06-10T06:11:22;12.27;;;6.00;;
25649;SDS011;13505;45.196;5.696;2023-06-10T06:16:13;7.68;;;5.95;;
25649;SDS011;13505;45.196;5.696;2023-06-10T06:21:03;13.70;;;6.18;;
25649;SDS011;13505;45.196;5.696;2023-06-10T06:25:53;7.80;;;5.70;;
25649;SDS011;13505;45.196;5.696;2023-06-10T06:30:44;9.73;;;6.05;;
25649;SDS011;13505;45.196;5.696;2023-06-10T06:35:35;8.25;;;5.18;;
25649;SDS011;13505;45.196;5.696;2023-06-10T06:40:25;10.47;;;5.47;;
25649;SDS011;13505;45.196;5.696;2023-06-10T06:45:15;12.10;;;5.60;;
25649;SDS011;13505;45.196;5.696;2023-06-10T06:50:06;16.43;;;6.50;;
25649;SDS011;13505;45.196;5.696;2023-06-10T06:54:56;12.93;;;6.47;;
25649;SDS011;13505;45.196;5.696;2023-06-10T06:59:47;10.93;;;6.97;;
25649;SDS011;13505;45.196;5.696;2023-06-10T07:04:37;10.18;;;7.05;;
25649;SDS011;13505;45.196;5.696;2023-06-10T07:09:28;10.23;;;7.22;;
25649;SDS011;13505;45.196;5.696;2023-06-10T07:14:18;10.38;;;6.60;;
25649;SDS011;13505;45.196;5.696;2023-06-10T07:19:08;11.83;;;8.10;;
25649;SDS011;13505;45.196;5.696;2023-06-10T07:23:59;9.67;;;7.70;;
25649;SDS011;13505;45.196;5.696;2023-06-10T07:28:49;13.93;;;9.25;;
25649;SDS011;13505;45.196;5.696;2023-06-10T07:33:40;11.67;;;8.57;;
25649;SDS011;13505;45.196;5.696;2023-06-10T07:38:30;12.37;;;8.47;;
25649;SDS011;13505;45.196;5.696;2023-06-10T07:43:20;14.23;;;8.47;;
25649;SDS011;13505;45.196;5.696;2023-06-10T07:48:11;11.13;;;8.47;;
25649;SDS011;13505;45.196;5.696;2023-06-10T07:53:01;12.80;;;8.93;;
25649;SDS011;13505;45.196;5.696;2023-06-10T07:57:52;10.98;;;7.65;;
25649;SDS011;13505;45.196;5.696;2023-06-10T08:02:43;9.60;;;7.28;;
25649;SDS011;13505;45.196;5.696;2023-06-10T08:07:33;11.70;;;7.80;;
25649;SDS011;13505;45.196;5.696;2023-06-10T08:12:23;9.40;;;7.20;;
25649;SDS011;13505;45.196;5.696;2023-06-10T08:17:14;10.40;;;6.90;;
25649;SDS011;13505;45.196;5.696;2023-06-10T08:22:04;11.93;;;7.05;;
25649;SDS011;13505;45.196;5.696;2023-06-10T08:26:54;8.23;;;6.35;;
25649;SDS011;13505;45.196;5.696;2023-06-10T08:31:47;9.40;;;6.22;;
25649;SDS011;13505;45.196;5.696;2023-06-10T08:36:37;9.73;;;5.77;;
25649;SDS011;13505;45.196;5.696;2023-06-10T08:41:28;7.70;;;5.27;;
25649;SDS011;13505;45.196;5.696;2023-06-10T08:46:20;9.98;;;6.05;;
25649;SDS011;13505;45.196;5.696;2023-06-10T08:51:11;9.40;;;5.57;;
25649;SDS011;13505;45.196;5.696;2023-06-10T08:56:02;6.35;;;5.32;;
25649;SDS011;13505;45.196;5.696;2023-06-10T09:00:54;8.30;;;5.13;;
25649;SDS011;13505;45.196;5.696;2023-06-10T09:05:45;7.63;;;4.38;;
25649;SDS011;13505;45.196;5.696;2023-06-10T09:10:35;11.07;;;5.07;;
25649;SDS011;13505;45.196;5.696;2023-06-10T09:15:26;8.20;;;5.13;;
25649;SDS011;13505;45.196;5.696;2023-06-10T09:20:16;7.93;;;4.72;;
25649;SDS011;13505;45.196;5.696;2023-06-10T09:25:09;9.40;;;5.40;;
25649;SDS011;13505;45.196;5.696;2023-06-10T09:30:01;7.93;;;5.78;;
25649;SDS011;13505;45.196;5.696;2023-06-10T09:34:52;6.60;;;5.13;;
25649;SDS011;13505;45.196;5.696;2023-06-10T09:39:42;11.30;;;5.33;;
25649;SDS011;13505;45.196;5.696;2023-06-10T09:44:32;9.73;;;4.77;;
25649;SDS011;13505;45.196;5.696;2023-06-10T09:49:23;14.40;;;4.00;;
25649;SDS011;13505;45.196;5.696;2023-06-10T09:54:13;11.57;;;5.00;;
25649;SDS011;13505;45.196;5.696;2023-06-10T09:59:03;6.20;;;4.00;;
25649;SDS011;13505;45.196;5.696;2023-06-10T10:03:56;6.00;;;4.57;;
25649;SDS011;13505;45.196;5.696;2023-06-10T10:08:47;10.13;;;4.60;;
25649;SDS011;13505;45.196;5.696;2023-06-10T10:13:38;9.25;;;4.40;;
25649;SDS011;13505;45.196;5.696;2023-06-10T10:18:30;7.47;;;3.35;;
25649;SDS011;13505;45.196;5.696;2023-06-10T10:23:24;12.20;;;4.13;;
25649;SDS011;13505;45.196;5.696;2023-06-10T10:28:19;8.80;;;3.57;;
25649;SDS011;13505;45.196;5.696;2023-06-10T10:33:21;6.05;;;3.28;;
25649;SDS011;13505;45.196;5.696;2023-06-10T10:38:17;5.97;;;3.03;;
25649;SDS011;13505;45.196;5.696;2023-06-10T10:43:08;3.90;;;2.80;;
25649;SDS011;13505;45.196;5.696;2023-06-10T10:48:04;3.55;;;2.33;;
25649;SDS011;13505;45.196;5.696;2023-06-10T10:53:02;5.15;;;2.45;;
25649;SDS011;13505;45.196;5.696;2023-06-10T10:57:57;3.55;;;2.47;;
25649;SDS011;13505;45.196;5.696;2023-06-10T11:02:49;2.97;;;2.60;;
25649;SDS011;13505;45.196;5.696;2023-06-10T11:07:51;5.07;;;2.53;;
25649;SDS011;13505;45.196;5.696;2023-06-10T11:12:53;3.88;;;2.58;;
25649;SDS011;13505;45.196;5.696;2023-06-10T11:23:02;2.60;;;2.07;;
25649;SDS011;13505;45.196;5.696;2023-06-10T11:27:52;4.13;;;2.17;;
25649;SDS011;13505;45.196;5.696;2023-06-10T11:32:43;3.97;;;2.27;;
25649;SDS011;13505;45.196;5.696;2023-06-10T11:37:34;3.10;;;2.10;;
25649;SDS011;13505;45.196;5.696;2023-06-10T11:42:24;4.10;;;2.30;;
25649;SDS011;13505;45.196;5.696;2023-06-10T11:47:15;2.80;;;2.03;;
25649;SDS011;13505;45.196;5.696;2023-06-10T11:52:05;4.50;;;2.03;;
25649;SDS011;13505;45.196;5.696;2023-06-10T11:57:04;5.30;;;2.42;;
25649;SDS011;13505;45.196;5.696;2023-06-10T12:02:31;2.80;;;2.30;;
25649;SDS011;13505;45.196;5.696;2023-06-10T12:12:21;5.05;;;3.00;;
25649;SDS011;13505;45.196;5.696;2023-06-10T12:17:12;4.30;;;2.87;;
25649;SDS011;13505;45.196;5.696;2023-06-10T12:22:02;5.77;;;2.80;;
25649;SDS011;13505;45.196;5.696;2023-06-10T12:26:53;3.70;;;2.60;;
25649;SDS011;13505;45.196;5.696;2023-06-10T12:31:58;3.28;;;2.60;;
25649;SDS011;13505;45.196;5.696;2023-06-10T12:36:50;4.90;;;3.03;;
25649;SDS011;13505;45.196;5.696;2023-06-10T12:41:47;7.45;;;2.92;;
25649;SDS011;13505;45.196;5.696;2023-06-10T12:46:41;51.58;;;5.88;;
25649;SDS011;13505;45.196;5.696;2023-06-10T12:51:31;43.97;;;5.38;;
25649;SDS011;13505;45.196;5.696;2023-06-10T12:56:22;23.07;;;3.90;;
25649;SDS011;13505;45.196;5.696;2023-06-10T13:01:13;49.70;;;5.63;;
25649;SDS011;13505;45.196;5.696;2023-06-10T13:06:04;17.50;;;3.05;;
25649;SDS011;13505;45.196;5.696;2023-06-10T13:10:55;40.78;;;4.53;;
25649;SDS011;13505;45.196;5.696;2023-06-10T13:15:46;44.77;;;4.70;;
25649;SDS011;13505;45.196;5.696;2023-06-10T13:20:36;11.98;;;2.70;;
25649;SDS011;13505;45.196;5.696;2023-06-10T13:30:26;9.65;;;2.50;;
25649;SDS011;13505;45.196;5.696;2023-06-10T13:35:17;12.30;;;3.17;;
25649;SDS011;13505;45.196;5.696;2023-06-10T13:40:08;4.90;;;2.28;;
25649;SDS011;13505;45.196;5.696;2023-06-10T13:44:59;5.15;;;2.40;;
25649;SDS011;13505;45.196;5.696;2023-06-10T15:57:12;3.80;;;2.50;;
25649;SDS011;13505;45.196;5.696;2023-06-10T16:12:04;4.38;;;2.53;;
